Check out our new PWSWeather beta!
PWSweather.com
Personal Weather Stations
Station Observations
LAKENACI1
Oak Shores Lake Nacimiento, Bradley, CA 93426

Oak Shores Lake NacimientoBradley, CA 93426

Lat: 35.749704, Lon: -120.988075

Elevation: 811

Station Type: Rain wise MK-III

https://www.rainwise.net/weather/JMConstructionOS

Latest ConditionsUpdated 6:59:00 PM PST Thursday, Feb 20, 2020
Currently Today's Max Today's Min Today's Average
Temperature 54.7°F12.6°C 75.9°F24.4°C 32.5°F0.3°C 51.1°F10.6°C
Dew Point 33.2°F0.7°C 40.2°F4.6°C 18.9°F-7.3°C 32.2°F0.1°C
Winds Calm Calm 4.3 mph -6.9 kmh - - 0.7 mph 1.1 kmh
Wind Gusts -- -- - -
Humidity 44% 92% 12% 59%
Pressure 29.20 in988.8 mb 29.30 in992.2 mb 29.17 in987.8 mb -
Hour Temp Dew Point Humidity Winds Wind Gusts Pressure Precip Precip Rate Daily Precip Total
06:59 PM 54.7°F12.6°C 33.2°F0.7°C 44% Calm Calm -- 29.20 in988.8 mb 0.00 in0.0 mm 0.00 in0.0 mm 0.00 in0.0 mm
06:53 PM 55.3°F12.9°C 29.5°F-1.4°C 37% Calm Calm -- 29.20 in988.8 mb 0.00 in0.0 mm 0.00 in0.0 mm 0.00 in0.0 mm
06:47 PM 55.5°F13.1°C 26.1°F-3.3°C 32% 1.8 mph W2.9 kmh W -- 29.19 in988.5 mb 0.00 in0.0 mm 0.00 in0.0 mm 0.00 in0.0 mm
06:42 PM 55.9°F13.3°C 26.5°F-3.1°C 32% Calm Calm -- 29.19 in988.5 mb 0.00 in0.0 mm 0.00 in0.0 mm 0.00 in0.0 mm
06:36 PM 56.7°F13.7°C 29.4°F-1.4°C 35% Calm Calm -- 29.20 in988.8 mb 0.00 in0.0 mm 0.00 in0.0 mm 0.00 in0.0 mm
06:31 PM 57.7°F14.3°C 29.5°F-1.4°C 34% 0.4 mph SSE0.6 kmh SSE -- 29.19 in988.5 mb 0.00 in0.0 mm 0.00 in0.0 mm 0.00 in0.0 mm
06:25 PM 59.0°F15.0°C 26.8°F-2.9°C 29% Calm Calm -- 29.20 in988.8 mb 0.00 in0.0 mm 0.00 in0.0 mm 0.00 in0.0 mm
06:20 PM 60.0°F15.6°C 24.1°F-4.4°C 25% Calm Calm -- 29.20 in988.8 mb 0.00 in0.0 mm 0.00 in0.0 mm 0.00 in0.0 mm
06:14 PM 61.1°F16.2°C 23.0°F-5.0°C 23% Calm Calm -- 29.19 in988.5 mb 0.00 in0.0 mm 0.00 in0.0 mm 0.00 in0.0 mm
06:09 PM 61.8°F16.6°C 22.6°F-5.2°C 22% Calm Calm -- 29.19 in988.5 mb 0.00 in0.0 mm 0.00 in0.0 mm 0.00 in0.0 mm
06:03 PM 62.6°F17.0°C 23.2°F-4.9°C 22% Calm Calm -- 29.19 in988.5 mb 0.00 in0.0 mm 0.00 in0.0 mm 0.00 in0.0 mm
05:58 PM 63.3°F17.4°C 22.7°F-5.2°C 21% Calm Calm -- 29.19 in988.5 mb 0.00 in0.0 mm 0.00 in0.0 mm 0.00 in0.0 mm
05:53 PM 64.2°F17.9°C 23.5°F-4.7°C 21% Calm Calm -- 29.18 in988.1 mb 0.00 in0.0 mm 0.00 in0.0 mm 0.00 in0.0 mm
05:47 PM 65.4°F18.6°C 24.5°F-4.2°C 21% Calm Calm -- 29.18 in988.1 mb 0.00 in0.0 mm 0.00 in0.0 mm 0.00 in0.0 mm
05:41 PM 66.6°F19.2°C 23.1°F-4.9°C 19% Calm Calm -- 29.18 in988.1 mb 0.00 in0.0 mm 0.00 in0.0 mm 0.00 in0.0 mm
05:35 PM 68.1°F20.1°C 24.3°F-4.3°C 19% Calm Calm -- 29.18 in988.1 mb 0.00 in0.0 mm 0.00 in0.0 mm 0.00 in0.0 mm
05:29 PM 69.2°F20.7°C 25.2°F-3.8°C 19% Calm Calm -- 29.18 in988.1 mb 0.00 in0.0 mm 0.00 in0.0 mm 0.00 in0.0 mm
05:23 PM 70.0°F21.1°C 24.6°F-4.1°C 18% Calm Calm -- 29.18 in988.1 mb 0.00 in0.0 mm 0.00 in0.0 mm 0.00 in0.0 mm
05:17 PM 71.0°F21.7°C 26.7°F-2.9°C 19% Calm Calm -- 29.17 in987.8 mb 0.00 in0.0 mm 0.00 in0.0 mm 0.00 in0.0 mm
05:12 PM 71.3°F21.8°C 26.9°F-2.8°C 19% Calm Calm -- 29.17 in987.8 mb 0.00 in0.0 mm 0.00 in0.0 mm 0.00 in0.0 mm
05:06 PM 71.5°F21.9°C 24.4°F-4.2°C 17% Calm Calm -- 29.17 in987.8 mb 0.00 in0.0 mm 0.00 in0.0 mm 0.00 in0.0 mm
05:01 PM 72.0°F22.2°C 26.2°F-3.2°C 18% 1.1 mph SSE1.8 kmh SSE -- 29.17 in987.8 mb 0.00 in0.0 mm 0.00 in0.0 mm 0.00 in0.0 mm
04:55 PM 72.9°F22.7°C 25.5°F-3.6°C 17% 2.1 mph SSE3.4 kmh SSE -- 29.17 in987.8 mb 0.00 in0.0 mm 0.00 in0.0 mm 0.00 in0.0 mm
04:49 PM 73.7°F23.2°C 24.7°F-4.1°C 16% 2.6 mph SSE4.2 kmh SSE -- 29.17 in987.8 mb 0.00 in0.0 mm 0.00 in0.0 mm 0.00 in0.0 mm
04:44 PM 74.0°F23.3°C 25.0°F-3.9°C 16% 1.7 mph SSE2.7 kmh SSE -- 29.17 in987.8 mb 0.00 in0.0 mm 0.00 in0.0 mm 0.00 in0.0 mm
04:38 PM 74.3°F23.5°C 25.2°F-3.8°C 16% 2.3 mph SSW3.7 kmh SSW -- 29.17 in987.8 mb 0.00 in0.0 mm 0.00 in0.0 mm 0.00 in0.0 mm
04:32 PM 74.7°F23.7°C 27.0°F-2.8°C 17% 0.1 mph SSW0.2 kmh SSW -- 29.17 in987.8 mb 0.00 in0.0 mm 0.00 in0.0 mm 0.00 in0.0 mm
04:26 PM 75.2°F24.0°C 25.9°F-3.4°C 16% 0.4 mph WSW0.6 kmh WSW -- 29.17 in987.8 mb 0.00 in0.0 mm 0.00 in0.0 mm 0.00 in0.0 mm
04:21 PM 75.4°F24.1°C 24.5°F-4.2°C 15% 1.4 mph SSW2.3 kmh SSW -- 29.17 in987.8 mb 0.00 in0.0 mm 0.00 in0.0 mm 0.00 in0.0 mm
04:15 PM 75.4°F24.1°C 22.9°F-5.1°C 14% 1.7 mph SSW2.7 kmh SSW -- 29.17 in987.8 mb 0.00 in0.0 mm 0.00 in0.0 mm 0.00 in0.0 mm
04:09 PM 75.5°F24.2°C 23.0°F-5.0°C 14% 0.8 mph SW1.3 kmh SW -- 29.18 in988.1 mb 0.00 in0.0 mm 0.00 in0.0 mm 0.00 in0.0 mm
04:04 PM 75.0°F23.9°C 22.6°F-5.2°C 14% 0.6 mph SW1.0 kmh SW -- 29.17 in987.8 mb 0.00 in0.0 mm 0.00 in0.0 mm 0.00 in0.0 mm
03:59 PM 75.0°F23.9°C 24.2°F-4.3°C 15% 1.4 mph SSW2.3 kmh SSW -- 29.17 in987.8 mb 0.00 in0.0 mm 0.00 in0.0 mm 0.00 in0.0 mm
03:53 PM 75.3°F24.1°C 21.1°F-6.1°C 13% 1.5 mph SSE2.4 kmh SSE -- 29.18 in988.1 mb 0.00 in0.0 mm 0.00 in0.0 mm 0.00 in0.0 mm
03:48 PM 75.5°F24.2°C 23.0°F-5.0°C 14% 2.5 mph SSW4.0 kmh SSW -- 29.18 in988.1 mb 0.00 in0.0 mm 0.00 in0.0 mm 0.00 in0.0 mm
03:42 PM 75.9°F24.4°C 21.5°F-5.8°C 13% 2.7 mph SSE4.3 kmh SSE -- 29.17 in987.8 mb 0.00 in0.0 mm 0.00 in0.0 mm 0.00 in0.0 mm
03:36 PM 75.9°F24.4°C 23.3°F-4.8°C 14% 2.3 mph SSW3.7 kmh SSW -- 29.17 in987.8 mb 0.00 in0.0 mm 0.00 in0.0 mm 0.00 in0.0 mm
03:31 PM 75.5°F24.2°C 19.3°F-7.1°C 12% 1.6 mph SSW2.6 kmh SSW -- 29.17 in987.8 mb 0.00 in0.0 mm 0.00 in0.0 mm 0.00 in0.0 mm
03:25 PM 75.0°F23.9°C 20.8°F-6.2°C 13% 1.5 mph SW2.4 kmh SW -- 29.18 in988.1 mb 0.00 in0.0 mm 0.00 in0.0 mm 0.00 in0.0 mm
03:20 PM 74.9°F23.8°C 18.9°F-7.3°C 12% 0.9 mph S1.4 kmh S -- 29.18 in988.1 mb 0.00 in0.0 mm 0.00 in0.0 mm 0.00 in0.0 mm
03:15 PM 75.2°F24.0°C 22.7°F-5.2°C 14% 1.4 mph SSW2.3 kmh SSW -- 29.18 in988.1 mb 0.00 in0.0 mm 0.00 in0.0 mm 0.00 in0.0 mm
03:09 PM 75.2°F24.0°C 28.8°F-1.8°C 18% 3.9 mph SSW6.3 kmh SSW -- 29.18 in988.1 mb 0.00 in0.0 mm 0.00 in0.0 mm 0.00 in0.0 mm
03:04 PM 74.5°F23.6°C 29.5°F-1.4°C 19% 1.7 mph SSW2.7 kmh SSW -- 29.18 in988.1 mb 0.00 in0.0 mm 0.00 in0.0 mm 0.00 in0.0 mm
02:59 PM 73.7°F23.2°C 31.3°F-0.4°C 21% 2.1 mph S3.4 kmh S -- 29.18 in988.1 mb 0.00 in0.0 mm 0.00 in0.0 mm 0.00 in0.0 mm
02:53 PM 72.7°F22.6°C 32.8°F0.4°C 23% 1.9 mph SSE3.1 kmh SSE -- 29.18 in988.1 mb 0.00 in0.0 mm 0.00 in0.0 mm 0.00 in0.0 mm
02:48 PM 72.5°F22.5°C 31.5°F-0.3°C 22% 0.3 mph SSW0.5 kmh SSW -- 29.18 in988.1 mb 0.00 in0.0 mm 0.00 in0.0 mm 0.00 in0.0 mm
02:43 PM 73.2°F22.9°C 30.9°F-0.6°C 21% 4.3 mph WSW6.9 kmh WSW -- 29.18 in988.1 mb 0.00 in0.0 mm 0.00 in0.0 mm 0.00 in0.0 mm
02:38 PM 73.3°F22.9°C 32.2°F0.1°C 22% 3.1 mph SSE5.0 kmh SSE -- 29.18 in988.1 mb 0.00 in0.0 mm 0.00 in0.0 mm 0.00 in0.0 mm
02:32 PM 73.7°F23.2°C 34.7°F1.5°C 24% 2.0 mph SSE3.2 kmh SSE -- 29.18 in988.1 mb 0.00 in0.0 mm 0.00 in0.0 mm 0.00 in0.0 mm
02:26 PM 74.4°F23.6°C 35.2°F1.8°C 24% 2.2 mph SE3.5 kmh SE -- 29.19 in988.5 mb 0.00 in0.0 mm 0.00 in0.0 mm 0.00 in0.0 mm
02:20 PM 74.4°F23.6°C 35.2°F1.8°C 24% 0.7 mph SSW1.1 kmh SSW -- 29.18 in988.1 mb 0.00 in0.0 mm 0.00 in0.0 mm 0.00 in0.0 mm
02:14 PM 73.7°F23.2°C 34.7°F1.5°C 24% 1.7 mph SSE2.7 kmh SSE -- 29.19 in988.5 mb 0.00 in0.0 mm 0.00 in0.0 mm 0.00 in0.0 mm
02:09 PM 73.3°F22.9°C 34.3°F1.3°C 24% 1.7 mph SW2.7 kmh SW -- 29.19 in988.5 mb 0.00 in0.0 mm 0.00 in0.0 mm 0.00 in0.0 mm
02:03 PM 72.7°F22.6°C 34.8°F1.6°C 25% 0.4 mph W0.6 kmh W -- 29.19 in988.5 mb 0.00 in0.0 mm 0.00 in0.0 mm 0.00 in0.0 mm
01:58 PM 72.2°F22.3°C 35.4°F1.9°C 26% 1.5 mph WSW2.4 kmh WSW -- 29.19 in988.5 mb 0.00 in0.0 mm 0.00 in0.0 mm 0.00 in0.0 mm
01:52 PM 71.4°F21.9°C 33.7°F0.9°C 25% 0.2 mph SSE0.3 kmh SSE -- 29.20 in988.8 mb 0.00 in0.0 mm 0.00 in0.0 mm 0.00 in0.0 mm
01:47 PM 70.9°F21.6°C 34.3°F1.3°C 26% 1.7 mph SSE2.7 kmh SSE -- 29.20 in988.8 mb 0.00 in0.0 mm 0.00 in0.0 mm 0.00 in0.0 mm
01:41 PM 70.0°F21.1°C 36.3°F2.4°C 29% Calm Calm -- 29.20 in988.8 mb 0.00 in0.0 mm 0.00 in0.0 mm 0.00 in0.0 mm
01:35 PM 69.8°F21.0°C 37.0°F2.8°C 30% 2.0 mph SW3.2 kmh SW -- 29.20 in988.8 mb 0.00 in0.0 mm 0.00 in0.0 mm 0.00 in0.0 mm
01:30 PM 69.9°F21.1°C 37.9°F3.3°C 31% 1.1 mph SW1.8 kmh SW -- 29.20 in988.8 mb 0.00 in0.0 mm 0.00 in0.0 mm 0.00 in0.0 mm
01:24 PM 70.0°F21.1°C 38.0°F3.3°C 31% 1.9 mph WSW3.1 kmh WSW -- 29.21 in989.2 mb 0.00 in0.0 mm 0.00 in0.0 mm 0.00 in0.0 mm
01:19 PM 69.5°F20.8°C 38.3°F3.5°C 32% 1.4 mph SSW2.3 kmh SSW -- 29.21 in989.2 mb 0.00 in0.0 mm 0.00 in0.0 mm 0.00 in0.0 mm
01:13 PM 69.0°F20.6°C 37.9°F3.3°C 32% 2.1 mph SSE3.4 kmh SSE -- 29.21 in989.2 mb 0.00 in0.0 mm 0.00 in0.0 mm 0.00 in0.0 mm
01:08 PM 68.4°F20.2°C 37.4°F3.0°C 32% Calm Calm -- 29.22 in989.5 mb 0.00 in0.0 mm 0.00 in0.0 mm 0.00 in0.0 mm
01:02 PM 68.2°F20.1°C 38.0°F3.3°C 33% 0.7 mph SSE1.1 kmh SSE -- 29.22 in989.5 mb 0.00 in0.0 mm 0.00 in0.0 mm 0.00 in0.0 mm
12:57 PM 68.7°F20.4°C 38.4°F3.6°C 33% 1.9 mph SSE3.1 kmh SSE -- 29.22 in989.5 mb 0.00 in0.0 mm 0.00 in0.0 mm 0.00 in0.0 mm
12:51 PM 68.7°F20.4°C 38.4°F3.6°C 33% Calm Calm -- 29.23 in989.8 mb 0.00 in0.0 mm 0.00 in0.0 mm 0.00 in0.0 mm
12:46 PM 68.7°F20.4°C 38.4°F3.6°C 33% 2.3 mph SW3.7 kmh SW -- 29.23 in989.8 mb 0.00 in0.0 mm 0.00 in0.0 mm 0.00 in0.0 mm
12:40 PM 68.2°F20.1°C 38.8°F3.8°C 34% 1.1 mph SSW1.8 kmh SSW -- 29.24 in990.2 mb 0.00 in0.0 mm 0.00 in0.0 mm 0.00 in0.0 mm
12:34 PM 67.7°F19.8°C 38.3°F3.5°C 34% 2.1 mph SSW3.4 kmh SSW -- 29.24 in990.2 mb 0.00 in0.0 mm 0.00 in0.0 mm 0.00 in0.0 mm
12:29 PM 66.9°F19.4°C 39.1°F3.9°C 36% 1.3 mph SSW2.1 kmh SSW -- 29.24 in990.2 mb 0.00 in0.0 mm 0.00 in0.0 mm 0.00 in0.0 mm
12:23 PM 65.0°F18.3°C 38.1°F3.4°C 37% 1.0 mph SSW1.6 kmh SSW -- 29.24 in990.2 mb 0.00 in0.0 mm 0.00 in0.0 mm 0.00 in0.0 mm
12:17 PM 64.2°F17.9°C 36.7°F2.6°C 36% 2.3 mph SW3.7 kmh SW -- 29.24 in990.2 mb 0.00 in0.0 mm 0.00 in0.0 mm 0.00 in0.0 mm
12:11 PM 65.3°F18.5°C 38.4°F3.6°C 37% 2.9 mph SW4.7 kmh SW -- 29.25 in990.5 mb 0.00 in0.0 mm 0.00 in0.0 mm 0.00 in0.0 mm
12:06 PM 65.2°F18.4°C 39.0°F3.9°C 38% 1.0 mph SW1.6 kmh SW -- 29.25 in990.5 mb 0.00 in0.0 mm 0.00 in0.0 mm 0.00 in0.0 mm
12:00 PM 64.4°F18.0°C 37.6°F3.1°C 37% 0.9 mph SSW1.4 kmh SSW -- 29.26 in990.9 mb 0.00 in0.0 mm 0.00 in0.0 mm 0.00 in0.0 mm
11:54 AM 64.6°F18.1°C 38.4°F3.6°C 38% 2.4 mph SW3.9 kmh SW -- 29.26 in990.9 mb 0.00 in0.0 mm 0.00 in0.0 mm 0.00 in0.0 mm
11:48 AM 64.4°F18.0°C 40.2°F4.6°C 41% 2.2 mph SW3.5 kmh SW -- 29.26 in990.9 mb 0.00 in0.0 mm 0.00 in0.0 mm 0.00 in0.0 mm
11:43 AM 63.7°F17.6°C 39.6°F4.2°C 41% 1.3 mph SW2.1 kmh SW -- 29.26 in990.9 mb 0.00 in0.0 mm 0.00 in0.0 mm 0.00 in0.0 mm
11:38 AM 62.7°F17.1°C 39.9°F4.4°C 43% 2.3 mph SSW3.7 kmh SSW -- 29.26 in990.9 mb 0.00 in0.0 mm 0.00 in0.0 mm 0.00 in0.0 mm
11:32 AM 61.6°F16.4°C 39.5°F4.2°C 44% 1.6 mph SSE2.6 kmh SSE -- 29.27 in991.2 mb 0.00 in0.0 mm 0.00 in0.0 mm 0.00 in0.0 mm
11:27 AM 61.3°F16.3°C 38.6°F3.7°C 43% 1.4 mph SW2.3 kmh SW -- 29.27 in991.2 mb 0.00 in0.0 mm 0.00 in0.0 mm 0.00 in0.0 mm
11:21 AM 60.2°F15.7°C 38.2°F3.4°C 44% 1.4 mph SW2.3 kmh SW -- 29.27 in991.2 mb 0.00 in0.0 mm 0.00 in0.0 mm 0.00 in0.0 mm
11:16 AM 59.5°F15.3°C 38.7°F3.7°C 46% 2.1 mph WSW3.4 kmh WSW -- 29.27 in991.2 mb 0.00 in0.0 mm 0.00 in0.0 mm 0.00 in0.0 mm
11:10 AM 58.4°F14.7°C 38.8°F3.8°C 48% 1.1 mph SW1.8 kmh SW -- 29.28 in991.5 mb 0.00 in0.0 mm 0.00 in0.0 mm 0.00 in0.0 mm
11:05 AM 57.2°F14.0°C 38.2°F3.4°C 49% 1.8 mph SW2.9 kmh SW -- 29.28 in991.5 mb 0.00 in0.0 mm 0.00 in0.0 mm 0.00 in0.0 mm
10:59 AM 56.1°F13.4°C 37.7°F3.2°C 50% 2.1 mph SW3.4 kmh SW -- 29.28 in991.5 mb 0.00 in0.0 mm 0.00 in0.0 mm 0.00 in0.0 mm
10:53 AM 55.6°F13.1°C 37.3°F2.9°C 50% 1.8 mph SW2.9 kmh SW -- 29.29 in991.9 mb 0.00 in0.0 mm 0.00 in0.0 mm 0.00 in0.0 mm
10:47 AM 56.8°F13.8°C 38.4°F3.6°C 50% 2.6 mph SW4.2 kmh SW -- 29.29 in991.9 mb 0.00 in0.0 mm 0.00 in0.0 mm 0.00 in0.0 mm
10:42 AM 57.3°F14.1°C 39.3°F4.1°C 51% 0.6 mph SSW1.0 kmh SSW -- 29.29 in991.9 mb 0.00 in0.0 mm 0.00 in0.0 mm 0.00 in0.0 mm
10:36 AM 55.7°F13.2°C 37.9°F3.3°C 51% Calm Calm -- 29.29 in991.9 mb 0.00 in0.0 mm 0.00 in0.0 mm 0.00 in0.0 mm
10:30 AM 53.9°F12.2°C 37.6°F3.1°C 54% 0.5 mph SSE0.8 kmh SSE -- 29.29 in991.9 mb 0.00 in0.0 mm 0.00 in0.0 mm 0.00 in0.0 mm
10:24 AM 52.7°F11.5°C 37.4°F3.0°C 56% 1.5 mph SSW2.4 kmh SSW -- 29.29 in991.9 mb 0.00 in0.0 mm 0.00 in0.0 mm 0.00 in0.0 mm
10:19 AM 51.5°F10.8°C 36.8°F2.7°C 57% 1.5 mph SW2.4 kmh SW -- 29.29 in991.9 mb 0.00 in0.0 mm 0.00 in0.0 mm 0.00 in0.0 mm
10:14 AM 51.0°F10.6°C 37.2°F2.9°C 59% 1.9 mph SW3.1 kmh SW -- 29.29 in991.9 mb 0.00 in0.0 mm 0.00 in0.0 mm 0.00 in0.0 mm
10:08 AM 50.3°F10.2°C 37.0°F2.8°C 60% 1.4 mph SW2.3 kmh SW -- 29.29 in991.9 mb 0.00 in0.0 mm 0.00 in0.0 mm 0.00 in0.0 mm
10:03 AM 49.3°F9.6°C 36.4°F2.4°C 61% 1.9 mph SW3.1 kmh SW -- 29.29 in991.9 mb 0.00 in0.0 mm 0.00 in0.0 mm 0.00 in0.0 mm
09:57 AM 48.7°F9.3°C 36.7°F2.6°C 63% 2.0 mph SW3.2 kmh SW -- 29.30 in992.2 mb 0.00 in0.0 mm 0.00 in0.0 mm 0.00 in0.0 mm
09:52 AM 48.3°F9.1°C 36.3°F2.4°C 63% 2.2 mph SW3.5 kmh SW -- 29.30 in992.2 mb 0.00 in0.0 mm 0.00 in0.0 mm 0.00 in0.0 mm
09:46 AM 48.5°F9.2°C 37.3°F2.9°C 65% 1.6 mph SW2.6 kmh SW -- 29.30 in992.2 mb 0.00 in0.0 mm 0.00 in0.0 mm 0.00 in0.0 mm
09:40 AM 48.2°F9.0°C 37.4°F3.0°C 66% 0.5 mph SSE0.8 kmh SSE -- 29.30 in992.2 mb 0.00 in0.0 mm 0.00 in0.0 mm 0.00 in0.0 mm
09:34 AM 47.5°F8.6°C 37.5°F3.1°C 68% 2.5 mph SSE4.0 kmh SSE -- 29.30 in992.2 mb 0.00 in0.0 mm 0.00 in0.0 mm 0.00 in0.0 mm
09:29 AM 46.2°F7.9°C 37.0°F2.8°C 70% 2.1 mph ESE3.4 kmh ESE -- 29.30 in992.2 mb 0.00 in0.0 mm 0.00 in0.0 mm 0.00 in0.0 mm
09:23 AM 44.7°F7.1°C 36.9°F2.7°C 74% Calm Calm -- 29.30 in992.2 mb 0.00 in0.0 mm 0.00 in0.0 mm 0.00 in0.0 mm
09:18 AM 44.5°F6.9°C 37.7°F3.2°C 77% 1.2 mph S1.9 kmh S -- 29.30 in992.2 mb 0.00 in0.0 mm 0.00 in0.0 mm 0.00 in0.0 mm
09:13 AM 43.9°F6.6°C 37.2°F2.9°C 77% 0.4 mph WSW0.6 kmh WSW -- 29.30 in992.2 mb 0.00 in0.0 mm 0.00 in0.0 mm 0.00 in0.0 mm
09:07 AM 42.8°F6.0°C 36.7°F2.6°C 79% 0.8 mph SW1.3 kmh SW -- 29.30 in992.2 mb 0.00 in0.0 mm 0.00 in0.0 mm 0.00 in0.0 mm
09:01 AM 42.2°F5.7°C 36.8°F2.7°C 81% 1.6 mph SW2.6 kmh SW -- 29.30 in992.2 mb 0.00 in0.0 mm 0.00 in0.0 mm 0.00 in0.0 mm
08:55 AM 41.3°F5.2°C 35.9°F2.2°C 81% 0.1 mph SW0.2 kmh SW -- 29.30 in992.2 mb 0.00 in0.0 mm 0.00 in0.0 mm 0.00 in0.0 mm
08:49 AM 40.8°F4.9°C 35.4°F1.9°C 81% 0.5 mph SSW0.8 kmh SSW -- 29.30 in992.2 mb 0.00 in0.0 mm 0.00 in0.0 mm 0.00 in0.0 mm
08:44 AM 41.1°F5.1°C 36.3°F2.4°C 83% 1.7 mph SSW2.7 kmh SSW -- 29.30 in992.2 mb 0.00 in0.0 mm 0.00 in0.0 mm 0.00 in0.0 mm
08:38 AM 41.6°F5.3°C 37.1°F2.8°C 84% 0.5 mph S0.8 kmh S -- 29.29 in991.9 mb 0.00 in0.0 mm 0.00 in0.0 mm 0.00 in0.0 mm
08:33 AM 41.4°F5.2°C 37.2°F2.9°C 85% 0.4 mph SSW0.6 kmh SSW -- 29.30 in992.2 mb 0.00 in0.0 mm 0.00 in0.0 mm 0.00 in0.0 mm
08:27 AM 40.6°F4.8°C 37.0°F2.8°C 87% 0.8 mph SSE1.3 kmh SSE -- 29.29 in991.9 mb 0.00 in0.0 mm 0.00 in0.0 mm 0.00 in0.0 mm
08:21 AM 39.7°F4.3°C 36.2°F2.3°C 87% Calm Calm -- 29.29 in991.9 mb 0.00 in0.0 mm 0.00 in0.0 mm 0.00 in0.0 mm
08:16 AM 38.8°F3.8°C 35.0°F1.7°C 86% Calm Calm -- 29.29 in991.9 mb 0.00 in0.0 mm 0.00 in0.0 mm 0.00 in0.0 mm
08:11 AM 38.0°F3.3°C 34.5°F1.4°C 87% 0.3 mph SSE0.5 kmh SSE -- 29.28 in991.5 mb 0.00 in0.0 mm 0.00 in0.0 mm 0.00 in0.0 mm
08:06 AM 37.1°F2.8°C 33.6°F0.9°C 87% 1.1 mph SSE1.8 kmh SSE -- 29.28 in991.5 mb 0.00 in0.0 mm 0.00 in0.0 mm 0.00 in0.0 mm
08:00 AM 36.1°F2.3°C 32.9°F0.5°C 88% Calm Calm -- 29.28 in991.5 mb 0.00 in0.0 mm 0.00 in0.0 mm 0.00 in0.0 mm
07:55 AM 35.7°F2.1°C 32.5°F0.3°C 88% Calm Calm -- 29.28 in991.5 mb 0.00 in0.0 mm 0.00 in0.0 mm 0.00 in0.0 mm
07:50 AM 35.1°F1.7°C 32.2°F0.1°C 89% Calm Calm -- 29.27 in991.2 mb 0.00 in0.0 mm 0.00 in0.0 mm 0.00 in0.0 mm
07:45 AM 34.3°F1.3°C 31.7°F-0.2°C 90% Calm Calm -- 29.27 in991.2 mb 0.00 in0.0 mm 0.00 in0.0 mm 0.00 in0.0 mm
07:39 AM 33.3°F0.7°C 31.0°F-0.6°C 91% Calm Calm -- 29.26 in990.9 mb 0.00 in0.0 mm 0.00 in0.0 mm 0.00 in0.0 mm
07:33 AM 32.9°F0.5°C 30.8°F-0.7°C 92% Calm Calm -- 29.26 in990.9 mb 0.00 in0.0 mm 0.00 in0.0 mm 0.00 in0.0 mm
07:28 AM 32.7°F0.4°C 30.4°F-0.9°C 91% Calm Calm -- 29.25 in990.5 mb 0.00 in0.0 mm 0.00 in0.0 mm 0.00 in0.0 mm
07:22 AM 32.7°F0.4°C 30.6°F-0.8°C 92% Calm Calm -- 29.25 in990.5 mb 0.00 in0.0 mm 0.00 in0.0 mm 0.00 in0.0 mm
07:16 AM 32.6°F0.3°C 30.3°F-0.9°C 91% Calm Calm -- 29.25 in990.5 mb 0.00 in0.0 mm 0.00 in0.0 mm 0.00 in0.0 mm
07:11 AM 32.5°F0.3°C 30.2°F-1.0°C 91% Calm Calm -- 29.25 in990.5 mb 0.00 in0.0 mm 0.00 in0.0 mm 0.00 in0.0 mm
07:05 AM 32.5°F0.3°C 30.2°F-1.0°C 91% Calm Calm -- 29.24 in990.2 mb 0.00 in0.0 mm 0.00 in0.0 mm 0.00 in0.0 mm
07:00 AM 32.6°F0.3°C 30.0°F-1.1°C 90% Calm Calm -- 29.24 in990.2 mb 0.00 in0.0 mm 0.00 in0.0 mm 0.00 in0.0 mm
06:55 AM 32.7°F0.4°C 30.4°F-0.9°C 91% Calm Calm -- 29.24 in990.2 mb 0.00 in0.0 mm 0.00 in0.0 mm 0.00 in0.0 mm
06:49 AM 32.7°F0.4°C 30.1°F-1.1°C 90% Calm Calm -- 29.24 in990.2 mb 0.00 in0.0 mm 0.00 in0.0 mm 0.00 in0.0 mm
06:44 AM 32.8°F0.4°C 30.5°F-0.8°C 91% Calm Calm -- 29.23 in989.8 mb 0.00 in0.0 mm 0.00 in0.0 mm 0.00 in0.0 mm
06:38 AM 32.8°F0.4°C 30.2°F-1.0°C 90% Calm Calm -- 29.23 in989.8 mb 0.00 in0.0 mm 0.00 in0.0 mm 0.00 in0.0 mm
06:32 AM 32.8°F0.4°C 30.2°F-1.0°C 90% Calm Calm -- 29.23 in989.8 mb 0.00 in0.0 mm 0.00 in0.0 mm 0.00 in0.0 mm
06:27 AM 33.0°F0.6°C 30.7°F-0.7°C 91% Calm Calm -- 29.23 in989.8 mb 0.00 in0.0 mm 0.00 in0.0 mm 0.00 in0.0 mm
06:21 AM 33.0°F0.6°C 30.4°F-0.9°C 90% Calm Calm -- 29.23 in989.8 mb 0.00 in0.0 mm 0.00 in0.0 mm 0.00 in0.0 mm
06:16 AM 33.0°F0.6°C 30.4°F-0.9°C 90% Calm Calm -- 29.23 in989.8 mb 0.00 in0.0 mm 0.00 in0.0 mm 0.00 in0.0 mm
06:10 AM 33.2°F0.7°C 30.3°F-0.9°C 89% Calm Calm -- 29.23 in989.8 mb 0.00 in0.0 mm 0.00 in0.0 mm 0.00 in0.0 mm
06:05 AM 33.2°F0.7°C 30.6°F-0.8°C 90% Calm Calm -- 29.23 in989.8 mb 0.00 in0.0 mm 0.00 in0.0 mm 0.00 in0.0 mm
06:00 AM 33.2°F0.7°C 30.6°F-0.8°C 90% Calm Calm -- 29.22 in989.5 mb 0.00 in0.0 mm 0.00 in0.0 mm 0.00 in0.0 mm
05:54 AM 33.3°F0.7°C 30.7°F-0.7°C 90% Calm Calm -- 29.22 in989.5 mb 0.00 in0.0 mm 0.00 in0.0 mm 0.00 in0.0 mm
05:49 AM 33.3°F0.7°C 30.7°F-0.7°C 90% Calm Calm -- 29.23 in989.8 mb 0.00 in0.0 mm 0.00 in0.0 mm 0.00 in0.0 mm
05:44 AM 33.5°F0.8°C 30.6°F-0.8°C 89% Calm Calm -- 29.22 in989.5 mb 0.00 in0.0 mm 0.00 in0.0 mm 0.00 in0.0 mm
05:38 AM 33.7°F0.9°C 30.8°F-0.7°C 89% Calm Calm -- 29.22 in989.5 mb 0.00 in0.0 mm 0.00 in0.0 mm 0.00 in0.0 mm
05:32 AM 33.8°F1.0°C 30.9°F-0.6°C 89% Calm Calm -- 29.23 in989.8 mb 0.00 in0.0 mm 0.00 in0.0 mm 0.00 in0.0 mm
05:27 AM 33.8°F1.0°C 31.5°F-0.3°C 91% Calm Calm -- 29.22 in989.5 mb 0.00 in0.0 mm 0.00 in0.0 mm 0.00 in0.0 mm
05:21 AM 33.8°F1.0°C 31.2°F-0.4°C 90% Calm Calm -- 29.22 in989.5 mb 0.00 in0.0 mm 0.00 in0.0 mm 0.00 in0.0 mm
05:16 AM 33.8°F1.0°C 31.2°F-0.4°C 90% Calm Calm -- 29.22 in989.5 mb 0.00 in0.0 mm 0.00 in0.0 mm 0.00 in0.0 mm
05:11 AM 34.1°F1.2°C 31.2°F-0.4°C 89% Calm Calm -- 29.22 in989.5 mb 0.00 in0.0 mm 0.00 in0.0 mm 0.00 in0.0 mm
05:06 AM 34.5°F1.4°C 31.9°F-0.1°C 90% Calm Calm -- 29.22 in989.5 mb 0.00 in0.0 mm 0.00 in0.0 mm 0.00 in0.0 mm
05:01 AM 34.7°F1.5°C 31.8°F-0.1°C 89% Calm Calm -- 29.22 in989.5 mb 0.00 in0.0 mm 0.00 in0.0 mm 0.00 in0.0 mm
04:55 AM 34.7°F1.5°C 31.8°F-0.1°C 89% Calm Calm -- 29.22 in989.5 mb 0.00 in0.0 mm 0.00 in0.0 mm 0.00 in0.0 mm
04:50 AM 34.9°F1.6°C 32.0°F0.0°C 89% Calm Calm -- 29.22 in989.5 mb 0.00 in0.0 mm 0.00 in0.0 mm 0.00 in0.0 mm
04:44 AM 35.2°F1.8°C 32.0°F0.0°C 88% Calm Calm -- 29.22 in989.5 mb 0.00 in0.0 mm 0.00 in0.0 mm 0.00 in0.0 mm
04:39 AM 35.0°F1.7°C 32.1°F0.1°C 89% Calm Calm -- 29.22 in989.5 mb 0.00 in0.0 mm 0.00 in0.0 mm 0.00 in0.0 mm
04:33 AM 34.8°F1.6°C 31.3°F-0.4°C 87% Calm Calm -- 29.21 in989.2 mb 0.00 in0.0 mm 0.00 in0.0 mm 0.00 in0.0 mm
04:27 AM 34.8°F1.6°C 31.3°F-0.4°C 87% Calm Calm -- 29.21 in989.2 mb 0.00 in0.0 mm 0.00 in0.0 mm 0.00 in0.0 mm
04:21 AM 35.1°F1.7°C 31.6°F-0.2°C 87% Calm Calm -- 29.21 in989.2 mb 0.00 in0.0 mm 0.00 in0.0 mm 0.00 in0.0 mm
04:16 AM 35.2°F1.8°C 31.7°F-0.2°C 87% Calm Calm -- 29.22 in989.5 mb 0.00 in0.0 mm 0.00 in0.0 mm 0.00 in0.0 mm
04:10 AM 35.2°F1.8°C 32.0°F0.0°C 88% Calm Calm -- 29.22 in989.5 mb 0.00 in0.0 mm 0.00 in0.0 mm 0.00 in0.0 mm
04:05 AM 35.3°F1.8°C 31.8°F-0.1°C 87% Calm Calm -- 29.21 in989.2 mb 0.00 in0.0 mm 0.00 in0.0 mm 0.00 in0.0 mm
03:59 AM 35.5°F1.9°C 31.7°F-0.2°C 86% Calm Calm -- 29.21 in989.2 mb 0.00 in0.0 mm 0.00 in0.0 mm 0.00 in0.0 mm
03:53 AM 35.6°F2.0°C 31.8°F-0.1°C 86% Calm Calm -- 29.21 in989.2 mb 0.00 in0.0 mm 0.00 in0.0 mm 0.00 in0.0 mm
03:48 AM 35.6°F2.0°C 31.5°F-0.3°C 85% Calm Calm -- 29.22 in989.5 mb 0.00 in0.0 mm 0.00 in0.0 mm 0.00 in0.0 mm
03:43 AM 35.7°F2.1°C 31.6°F-0.2°C 85% Calm Calm -- 29.21 in989.2 mb 0.00 in0.0 mm 0.00 in0.0 mm 0.00 in0.0 mm
03:37 AM 35.8°F2.1°C 32.0°F0.0°C 86% Calm Calm -- 29.21 in989.2 mb 0.00 in0.0 mm 0.00 in0.0 mm 0.00 in0.0 mm
03:31 AM 36.1°F2.3°C 31.7°F-0.2°C 84% Calm Calm -- 29.21 in989.2 mb 0.00 in0.0 mm 0.00 in0.0 mm 0.00 in0.0 mm
03:26 AM 36.3°F2.4°C 32.2°F0.1°C 85% Calm Calm -- 29.22 in989.5 mb 0.00 in0.0 mm 0.00 in0.0 mm 0.00 in0.0 mm
03:20 AM 36.5°F2.5°C 32.4°F0.2°C 85% Calm Calm -- 29.22 in989.5 mb 0.00 in0.0 mm 0.00 in0.0 mm 0.00 in0.0 mm
03:14 AM 36.6°F2.6°C 32.5°F0.3°C 85% Calm Calm -- 29.22 in989.5 mb 0.00 in0.0 mm 0.00 in0.0 mm 0.00 in0.0 mm
03:09 AM 36.5°F2.5°C 32.4°F0.2°C 85% Calm Calm -- 29.22 in989.5 mb 0.00 in0.0 mm 0.00 in0.0 mm 0.00 in0.0 mm
03:03 AM 36.7°F2.6°C 32.6°F0.3°C 85% Calm Calm -- 29.22 in989.5 mb 0.00 in0.0 mm 0.00 in0.0 mm 0.00 in0.0 mm
02:58 AM 36.8°F2.7°C 32.7°F0.4°C 85% Calm Calm -- 29.22 in989.5 mb 0.00 in0.0 mm 0.00 in0.0 mm 0.00 in0.0 mm
02:53 AM 36.7°F2.6°C 32.0°F0.0°C 83% Calm Calm -- 29.22 in989.5 mb 0.00 in0.0 mm 0.00 in0.0 mm 0.00 in0.0 mm
02:48 AM 36.8°F2.7°C 32.1°F0.1°C 83% Calm Calm -- 29.22 in989.5 mb 0.00 in0.0 mm 0.00 in0.0 mm 0.00 in0.0 mm
02:42 AM 37.0°F2.8°C 32.3°F0.2°C 83% Calm Calm -- 29.22 in989.5 mb 0.00 in0.0 mm 0.00 in0.0 mm 0.00 in0.0 mm
02:36 AM 37.0°F2.8°C 32.3°F0.2°C 83% Calm Calm -- 29.23 in989.8 mb 0.00 in0.0 mm 0.00 in0.0 mm 0.00 in0.0 mm
02:30 AM 37.2°F2.9°C 32.8°F0.4°C 84% Calm Calm -- 29.23 in989.8 mb 0.00 in0.0 mm 0.00 in0.0 mm 0.00 in0.0 mm
02:25 AM 37.2°F2.9°C 32.2°F0.1°C 82% Calm Calm -- 29.23 in989.8 mb 0.00 in0.0 mm 0.00 in0.0 mm 0.00 in0.0 mm
02:20 AM 37.3°F2.9°C 32.6°F0.3°C 83% Calm Calm -- 29.23 in989.8 mb 0.00 in0.0 mm 0.00 in0.0 mm 0.00 in0.0 mm
02:15 AM 37.3°F2.9°C 32.3°F0.2°C 82% Calm Calm -- 29.23 in989.8 mb 0.00 in0.0 mm 0.00 in0.0 mm 0.00 in0.0 mm
02:09 AM 37.3°F2.9°C 32.3°F0.2°C 82% Calm Calm -- 29.23 in989.8 mb 0.00 in0.0 mm 0.00 in0.0 mm 0.00 in0.0 mm
02:03 AM 37.3°F2.9°C 32.3°F0.2°C 82% Calm Calm -- 29.23 in989.8 mb 0.00 in0.0 mm 0.00 in0.0 mm 0.00 in0.0 mm
01:57 AM 37.2°F2.9°C 32.5°F0.3°C 83% Calm Calm -- 29.23 in989.8 mb 0.00 in0.0 mm 0.00 in0.0 mm 0.00 in0.0 mm
01:51 AM 37.2°F2.9°C 32.5°F0.3°C 83% Calm Calm -- 29.23 in989.8 mb 0.00 in0.0 mm 0.00 in0.0 mm 0.00 in0.0 mm
01:46 AM 37.3°F2.9°C 32.6°F0.3°C 83% Calm Calm -- 29.23 in989.8 mb 0.00 in0.0 mm 0.00 in0.0 mm 0.00 in0.0 mm
01:41 AM 37.6°F3.1°C 32.9°F0.5°C 83% Calm Calm -- 29.23 in989.8 mb 0.00 in0.0 mm 0.00 in0.0 mm 0.00 in0.0 mm
01:35 AM 38.0°F3.3°C 33.3°F0.7°C 83% Calm Calm -- 29.23 in989.8 mb 0.00 in0.0 mm 0.00 in0.0 mm 0.00 in0.0 mm
01:30 AM 38.0°F3.3°C 33.0°F0.6°C 82% Calm Calm -- 29.23 in989.8 mb 0.00 in0.0 mm 0.00 in0.0 mm 0.00 in0.0 mm
01:24 AM 38.0°F3.3°C 33.3°F0.7°C 83% Calm Calm -- 29.23 in989.8 mb 0.00 in0.0 mm 0.00 in0.0 mm 0.00 in0.0 mm
01:18 AM 38.2°F3.4°C 33.8°F1.0°C 84% Calm Calm -- 29.23 in989.8 mb 0.00 in0.0 mm 0.00 in0.0 mm 0.00 in0.0 mm
01:12 AM 38.2°F3.4°C 33.5°F0.8°C 83% Calm Calm -- 29.23 in989.8 mb 0.00 in0.0 mm 0.00 in0.0 mm 0.00 in0.0 mm
01:07 AM 38.5°F3.6°C 34.4°F1.3°C 85% Calm Calm -- 29.23 in989.8 mb 0.00 in0.0 mm 0.00 in0.0 mm 0.00 in0.0 mm
01:02 AM 38.6°F3.7°C 34.2°F1.2°C 84% Calm Calm -- 29.23 in989.8 mb 0.00 in0.0 mm 0.00 in0.0 mm 0.00 in0.0 mm
12:57 AM 38.8°F3.8°C 34.1°F1.2°C 83% Calm Calm -- 29.23 in989.8 mb 0.00 in0.0 mm 0.00 in0.0 mm 0.00 in0.0 mm
12:51 AM 39.1°F3.9°C 34.7°F1.5°C 84% Calm Calm -- 29.23 in989.8 mb 0.00 in0.0 mm 0.00 in0.0 mm 0.00 in0.0 mm
12:46 AM 38.8°F3.8°C 34.1°F1.2°C 83% Calm Calm -- 29.23 in989.8 mb 0.00 in0.0 mm 0.00 in0.0 mm 0.00 in0.0 mm
12:40 AM 39.0°F3.9°C 34.0°F1.1°C 82% Calm Calm -- 29.23 in989.8 mb 0.00 in0.0 mm 0.00 in0.0 mm 0.00 in0.0 mm
12:35 AM 39.2°F4.0°C 33.9°F1.1°C 81% Calm Calm -- 29.23 in989.8 mb 0.00 in0.0 mm 0.00 in0.0 mm 0.00 in0.0 mm
12:29 AM 39.3°F4.1°C 33.7°F0.9°C 80% Calm Calm -- 29.23 in989.8 mb 0.00 in0.0 mm 0.00 in0.0 mm 0.00 in0.0 mm
12:24 AM 39.4°F4.1°C 33.8°F1.0°C 80% Calm Calm -- 29.23 in989.8 mb 0.00 in0.0 mm 0.00 in0.0 mm 0.00 in0.0 mm
12:18 AM 39.7°F4.3°C 33.4°F0.8°C 78% Calm Calm -- 29.24 in990.2 mb 0.00 in0.0 mm 0.00 in0.0 mm 0.00 in0.0 mm
12:13 AM 39.7°F4.3°C 33.4°F0.8°C 78% Calm Calm -- 29.24 in990.2 mb 0.00 in0.0 mm 0.00 in0.0 mm 0.00 in0.0 mm
12:07 AM 39.8°F4.3°C 32.9°F0.5°C 76% Calm Calm -- 29.24 in990.2 mb 0.00 in0.0 mm 0.00 in0.0 mm 0.00 in0.0 mm
12:02 AM 40.0°F4.4°C 33.4°F0.8°C 77% Calm Calm -- 29.24 in990.2 mb 0.00 in0.0 mm 0.00 in0.0 mm 0.00 in0.0 mm